createdAt,value
2023-04-20T00:00:29.913Z,16.60
2023-04-20T00:02:58.262Z,16.38
2023-04-20T00:05:26.255Z,16.90
2023-04-20T00:07:54.601Z,17.10
2023-04-20T00:10:22.322Z,17.42
2023-04-20T00:12:50.094Z,17.58
2023-04-20T00:15:17.737Z,18.00
2023-04-20T00:17:48.481Z,19.60
2023-04-20T00:20:16.265Z,19.60
2023-04-20T00:22:44.188Z,19.15
2023-04-20T00:25:11.827Z,19.85
2023-04-20T00:27:39.487Z,20.27
2023-04-20T00:30:08.363Z,20.35
2023-04-20T00:32:37.184Z,21.38
2023-04-20T00:35:07.105Z,22.58
2023-04-20T00:37:34.815Z,20.98
2023-04-20T00:40:02.465Z,22.27
2023-04-20T00:42:31.678Z,22.58
2023-04-20T00:44:59.345Z,21.92
2023-04-20T00:47:27.065Z,23.27
2023-04-20T00:49:55.082Z,23.25
2023-04-20T00:52:24.081Z,23.67
2023-04-20T00:54:51.798Z,24.08
2023-04-20T00:57:22.402Z,25.65
2023-04-20T00:59:50.290Z,25.38
2023-04-20T01:02:18.244Z,26.38
2023-04-20T01:04:46.450Z,26.42
2023-04-20T01:07:14.132Z,27.05
2023-04-20T01:09:43.838Z,26.08
2023-04-20T01:12:11.675Z,26.67
2023-04-20T01:14:39.334Z,27.33
2023-04-20T01:17:07.010Z,25.30
2023-04-20T01:19:34.740Z,27.38
2023-04-20T01:22:03.356Z,27.20
2023-04-20T01:24:32.368Z,27.60
2023-04-20T01:27:01.372Z,26.92
2023-04-20T01:29:29.706Z,27.60
2023-04-20T01:31:57.570Z,27.90
2023-04-20T01:34:25.800Z,27.45
2023-04-20T01:36:54.701Z,28.10
2023-04-20T01:39:22.387Z,27.83
2023-04-20T01:41:51.582Z,26.20
2023-04-20T01:44:19.277Z,29.30
2023-04-20T01:46:47.018Z,27.60
2023-04-20T01:49:14.728Z,26.50
2023-04-20T01:51:42.421Z,26.98
2023-04-20T01:54:10.092Z,27.83
2023-04-20T01:56:37.770Z,28.52
2023-04-20T01:59:06.790Z,28.40
2023-04-20T02:01:35.055Z,27.13
2023-04-20T02:04:02.787Z,27.58
2023-04-20T02:06:31.913Z,28.60
2023-04-20T02:09:00.978Z,27.85
2023-04-20T02:11:28.653Z,27.75
2023-04-20T02:13:56.363Z,29.10
2023-04-20T02:16:25.569Z,28.52
2023-04-20T02:18:54.620Z,28.55
2023-04-20T02:21:22.366Z,27.77
2023-04-20T02:23:50.301Z,26.55
2023-04-20T02:26:18.058Z,27.05
2023-04-20T02:28:45.780Z,25.48
2023-04-20T02:31:13.458Z,23.90
2023-04-20T02:33:42.737Z,25.05
2023-04-20T02:36:10.772Z,24.13
2023-04-20T02:38:41.221Z,24.23
2023-04-20T02:41:08.875Z,24.10
2023-04-20T02:43:36.645Z,22.05
2023-04-20T02:46:05.701Z,22.98
2023-04-20T02:48:33.468Z,22.92
2023-04-20T02:51:02.571Z,21.30
2023-04-20T02:53:35.933Z,20.70
2023-04-20T02:56:13.967Z,19.95
2023-04-20T02:58:53.421Z,19.42
2023-04-20T03:01:29.114Z,18.02
2023-04-20T03:04:06.437Z,18.23
2023-04-20T03:06:40.420Z,17.52
2023-04-20T03:09:11.289Z,17.30
2023-04-20T03:11:58.922Z,16.33
2023-04-20T03:14:44.265Z,16.35
2023-04-20T03:17:12.345Z,15.50
2023-04-20T03:19:40.608Z,14.95
2023-04-20T03:22:09.913Z,14.82
2023-04-20T03:24:38.402Z,14.15
2023-04-20T03:27:16.490Z,13.20
2023-04-20T03:30:01.920Z,12.57
2023-04-20T03:32:32.680Z,12.05
2023-04-20T03:35:00.988Z,12.45
2023-04-20T03:37:30.684Z,11.68
2023-04-20T03:39:58.340Z,11.10
2023-04-20T03:42:26.313Z,11.27
2023-04-20T03:44:55.542Z,10.60
2023-04-20T03:47:23.253Z,9.95
2023-04-20T03:49:51.450Z,9.75
2023-04-20T03:52:19.155Z,9.27
2023-04-20T03:54:48.139Z,9.20
2023-04-20T03:57:17.619Z,8.18
2023-04-20T03:59:45.395Z,8.68
2023-04-20T04:02:17.603Z,7.40
2023-04-20T04:04:47.565Z,7.53
2023-04-20T04:07:15.410Z,6.80
2023-04-20T04:09:44.464Z,7.00
2023-04-20T04:12:14.962Z,6.70
2023-04-20T04:14:42.694Z,6.43
2023-04-20T04:17:12.025Z,6.38
2023-04-20T04:19:43.531Z,6.10
2023-04-20T04:22:11.281Z,6.13
2023-04-20T04:24:48.727Z,5.72
2023-04-20T04:27:20.736Z,5.20
2023-04-20T04:29:55.356Z,4.93
2023-04-20T04:32:25.149Z,4.70
2023-04-20T04:34:53.355Z,4.93
2023-04-20T04:37:21.688Z,4.70
2023-04-20T04:39:54.925Z,4.40
2023-04-20T04:42:30.086Z,3.92
2023-04-20T04:45:01.953Z,3.50
2023-04-20T04:47:35.379Z,3.92
2023-04-20T04:50:05.565Z,3.60
2023-04-20T04:52:33.800Z,3.30
2023-04-20T04:55:01.458Z,3.40
2023-04-20T04:57:30.453Z,3.50
2023-04-20T04:59:58.090Z,3.03
2023-04-20T05:02:25.958Z,3.13
2023-04-20T05:04:53.859Z,3.00
2023-04-20T05:07:21.548Z,2.60
2023-04-20T05:09:49.177Z,2.60
2023-04-20T05:12:16.832Z,2.58
2023-04-20T05:14:46.098Z,2.63
2023-04-20T05:17:13.790Z,2.28
2023-04-20T05:19:41.465Z,2.25
2023-04-20T05:22:09.137Z,2.13
2023-04-20T05:24:36.799Z,2.30
2023-04-20T05:27:05.037Z,2.10
2023-04-20T05:29:32.954Z,1.90
2023-04-20T05:32:02.236Z,2.10
2023-04-20T05:34:29.942Z,2.05
2023-04-20T05:36:59.238Z,1.90
2023-04-20T05:39:27.224Z,1.90
2023-04-20T05:41:54.897Z,1.88
2023-04-20T05:44:22.541Z,1.88
2023-04-20T05:46:50.283Z,1.77
2023-04-20T05:49:19.514Z,1.90
2023-04-20T05:51:47.422Z,1.90
2023-04-20T05:54:15.099Z,1.80
2023-04-20T05:56:42.774Z,1.60
2023-04-20T05:59:10.483Z,1.65
2023-04-20T06:01:38.120Z,1.67
2023-04-20T06:04:06.024Z,1.83
2023-04-20T06:06:35.431Z,1.63
2023-04-20T06:09:03.844Z,1.40
2023-04-20T06:11:31.515Z,1.55
2023-04-20T06:13:59.192Z,1.73
2023-04-20T06:16:27.070Z,1.60
2023-04-20T06:18:54.911Z,1.45
2023-04-20T06:21:24.374Z,1.60
2023-04-20T06:23:53.457Z,1.30
2023-04-20T06:26:22.013Z,1.50
2023-04-20T06:28:51.788Z,1.40
2023-04-20T06:31:19.469Z,1.60
2023-04-20T06:33:47.179Z,1.60
2023-04-20T06:36:14.842Z,1.48
2023-04-20T06:38:42.531Z,1.40
2023-04-20T06:41:11.514Z,1.42
2023-04-20T06:43:39.296Z,1.40
2023-04-20T06:46:07.058Z,1.60
2023-04-20T06:48:35.063Z,1.58
2023-04-20T06:51:02.790Z,1.50
2023-04-20T06:53:30.459Z,1.52
2023-04-20T06:55:58.807Z,1.45
2023-04-20T06:58:27.783Z,1.50
2023-04-20T07:00:55.450Z,1.40
2023-04-20T07:03:24.139Z,1.30
2023-04-20T07:05:52.141Z,1.52
2023-04-20T07:08:20.074Z,1.55
2023-04-20T07:10:47.743Z,1.40
2023-04-20T07:13:15.573Z,1.63
2023-04-20T07:15:45.756Z,1.40
2023-04-20T07:18:13.441Z,1.40
2023-04-20T07:20:41.189Z,1.35
2023-04-20T07:23:09.028Z,1.52
2023-04-20T07:25:36.695Z,1.27
2023-04-20T07:28:04.380Z,1.45
2023-04-20T07:30:32.178Z,1.48
2023-04-20T07:33:01.212Z,1.58
2023-04-20T07:35:29.042Z,1.40
2023-04-20T07:37:56.786Z,1.50
2023-04-20T07:40:24.732Z,1.40
2023-04-20T07:42:52.388Z,1.60
2023-04-20T07:45:20.211Z,1.60
2023-04-20T07:47:51.364Z,1.30
2023-04-20T07:50:20.584Z,1.40
2023-04-20T07:52:48.267Z,1.40
2023-04-20T07:55:17.225Z,1.50
2023-04-20T07:57:45.053Z,1.40
2023-04-20T08:00:14.975Z,1.60
2023-04-20T08:02:42.719Z,1.50
2023-04-20T08:05:11.130Z,1.60
2023-04-20T08:07:40.586Z,1.33
2023-04-20T08:10:09.153Z,1.50
2023-04-20T08:12:36.859Z,1.40
2023-04-20T08:15:06.571Z,1.38
2023-04-20T08:17:34.459Z,1.58
2023-04-20T08:20:02.216Z,1.60
2023-04-20T08:22:30.653Z,1.60
2023-04-20T08:24:59.634Z,1.50
2023-04-20T08:27:29.543Z,1.50
2023-04-20T08:29:57.263Z,1.73
2023-04-20T08:32:26.486Z,1.50
2023-04-20T08:34:54.348Z,1.48
2023-04-20T08:37:22.079Z,1.98
2023-04-20T08:39:49.730Z,1.42
2023-04-20T08:42:18.716Z,1.48
2023-04-20T08:44:46.390Z,1.63
2023-04-20T08:47:14.965Z,1.60
2023-04-20T08:49:42.626Z,1.50
2023-04-20T08:52:11.159Z,1.60
2023-04-20T08:54:42.953Z,1.40
2023-04-20T08:57:18.566Z,1.55
2023-04-20T08:59:46.218Z,1.55
2023-04-20T09:02:14.429Z,1.50
2023-04-20T09:04:42.584Z,1.52
2023-04-20T09:07:18.410Z,1.58
2023-04-20T09:09:54.826Z,1.73
2023-04-20T09:12:24.658Z,1.35
2023-04-20T09:14:52.466Z,1.75
2023-04-20T09:17:31.236Z,1.40
2023-04-20T09:19:59.112Z,1.42
2023-04-20T09:22:33.143Z,1.70
2023-04-20T09:25:01.162Z,1.33
2023-04-20T09:27:30.201Z,1.90
2023-04-20T09:29:58.712Z,1.63
2023-04-20T09:32:27.889Z,1.40
2023-04-20T09:34:56.028Z,1.70
2023-04-20T09:37:23.821Z,1.60
2023-04-20T09:39:51.587Z,1.50
2023-04-20T09:42:19.302Z,1.70
2023-04-20T09:44:48.417Z,1.75
2023-04-20T09:47:17.748Z,1.60
2023-04-20T09:49:46.481Z,1.58
2023-04-20T09:52:17.787Z,1.60
2023-04-20T09:54:45.706Z,1.60
2023-04-20T09:57:14.064Z,1.33
2023-04-20T09:59:43.099Z,1.60
2023-04-20T10:02:13.116Z,1.58
2023-04-20T10:04:55.093Z,1.42
2023-04-20T10:07:27.085Z,1.30
2023-04-20T10:10:13.625Z,1.58
2023-04-20T10:12:50.640Z,1.45
2023-04-20T10:15:18.402Z,1.80
2023-04-20T10:17:47.545Z,1.67
2023-04-20T10:20:22.645Z,1.45
2023-04-20T10:22:51.130Z,1.60
2023-04-20T10:25:20.398Z,1.88
2023-04-20T10:27:55.286Z,1.60
2023-04-20T10:30:23.569Z,1.40
2023-04-20T10:33:05.872Z,1.70
2023-04-20T10:35:44.600Z,1.67
2023-04-20T10:38:13.577Z,1.60
2023-04-20T10:40:41.271Z,1.50
2023-04-20T10:43:19.350Z,1.50
2023-04-20T10:45:47.024Z,1.55
2023-04-20T10:48:17.877Z,1.67
2023-04-20T10:50:46.012Z,1.13
2023-04-20T10:53:21.324Z,1.55
2023-04-20T10:55:51.457Z,1.52
2023-04-20T10:58:23.318Z,2.13
2023-04-20T11:01:01.066Z,2.10
2023-04-20T11:03:30.920Z,1.83
2023-04-20T11:06:01.407Z,1.60
2023-04-20T11:08:39.648Z,1.83
2023-04-20T11:11:08.728Z,1.58
2023-04-20T11:13:37.487Z,1.60
2023-04-20T11:16:12.182Z,1.90
2023-04-20T11:18:50.178Z,1.90
2023-04-20T11:21:17.849Z,1.95
2023-04-20T11:23:45.595Z,2.10
2023-04-20T11:26:13.315Z,2.10
2023-04-20T11:28:54.524Z,2.17
2023-04-20T11:31:23.815Z,2.40
2023-04-20T11:33:53.141Z,2.85
2023-04-20T11:36:21.558Z,2.38
2023-04-20T11:38:49.250Z,2.50
2023-04-20T11:41:17.549Z,2.90
2023-04-20T11:43:45.525Z,2.85
2023-04-20T11:46:16.904Z,2.60
2023-04-20T11:48:44.871Z,2.85
2023-04-20T11:51:14.248Z,2.80
2023-04-20T11:53:42.163Z,3.03
2023-04-20T11:56:09.830Z,3.67
2023-04-20T11:58:38.332Z,3.65
2023-04-20T12:01:06.707Z,3.40
2023-04-20T12:03:34.637Z,3.40
2023-04-20T12:06:02.599Z,3.63
2023-04-20T12:08:32.099Z,4.53
2023-04-20T12:10:59.821Z,4.35
2023-04-20T12:13:27.521Z,4.50
2023-04-20T12:15:55.328Z,4.30
2023-04-20T12:18:23.218Z,4.25
2023-04-20T12:20:51.487Z,4.05
2023-04-20T12:23:19.200Z,4.15
2023-04-20T12:25:49.248Z,3.90
2023-04-20T12:28:16.986Z,4.38
2023-04-20T12:30:44.789Z,3.83
2023-04-20T12:33:12.540Z,3.65
2023-04-20T12:35:40.293Z,3.88
2023-04-20T12:38:07.981Z,3.97
2023-04-20T12:40:36.005Z,3.40
2023-04-20T12:43:04.990Z,3.65
2023-04-20T12:45:32.721Z,3.65
2023-04-20T12:48:00.773Z,4.38
2023-04-20T12:50:29.018Z,4.22
2023-04-20T12:52:58.377Z,3.83
2023-04-20T12:55:26.360Z,3.60
2023-04-20T12:57:54.077Z,2.88
2023-04-20T13:00:23.234Z,3.50
2023-04-20T13:02:51.257Z,3.78
2023-04-20T13:05:19.768Z,3.55
2023-04-20T13:07:47.482Z,3.63
2023-04-20T13:10:15.235Z,3.92
2023-04-20T13:12:42.975Z,3.50
2023-04-20T13:15:12.741Z,3.75
2023-04-20T13:17:41.934Z,3.78
2023-04-20T13:20:10.703Z,3.58
2023-04-20T13:22:47.040Z,3.83
2023-04-20T13:25:25.005Z,4.70
2023-04-20T13:27:53.991Z,4.28
2023-04-20T13:30:24.284Z,5.15
2023-04-20T13:32:53.683Z,5.28
2023-04-20T13:35:21.650Z,5.53
2023-04-20T13:37:49.295Z,4.90
2023-04-20T13:40:17.025Z,4.90
2023-04-20T13:42:44.755Z,5.10
2023-04-20T13:45:12.894Z,4.38
2023-04-20T13:47:40.630Z,4.85
2023-04-20T13:50:10.890Z,5.05
2023-04-20T13:52:38.584Z,5.28
2023-04-20T13:55:06.750Z,4.82
2023-04-20T13:57:34.443Z,5.22
2023-04-20T14:00:02.277Z,4.68
2023-04-20T14:02:33.314Z,5.72
2023-04-20T14:05:01.045Z,5.50
2023-04-20T14:07:30.047Z,4.95
2023-04-20T14:09:59.731Z,5.28
2023-04-20T14:12:28.371Z,5.20
2023-04-20T14:14:57.875Z,4.55
2023-04-20T14:17:25.693Z,4.88
2023-04-20T14:19:53.422Z,5.18
2023-04-20T14:22:21.140Z,5.28
2023-04-20T14:24:50.158Z,6.72
2023-04-20T14:27:17.863Z,5.93
2023-04-20T14:29:45.597Z,5.45
2023-04-20T14:32:13.747Z,5.22
2023-04-20T14:34:41.435Z,5.35
2023-04-20T14:37:09.641Z,4.75
2023-04-20T14:39:37.359Z,5.00
2023-04-20T14:42:07.489Z,4.80
2023-04-20T14:44:35.292Z,4.68
2023-04-20T14:47:03.300Z,4.35
2023-04-20T14:49:31.095Z,4.78
2023-04-20T14:51:58.796Z,4.93
2023-04-20T14:54:26.504Z,4.63
2023-04-20T14:56:54.191Z,4.82
2023-04-20T14:59:24.462Z,5.18
2023-04-20T15:02:01.735Z,4.95
2023-04-20T15:04:31.045Z,4.85
2023-04-20T15:06:58.862Z,5.28
2023-04-20T15:09:26.651Z,4.80
2023-04-20T15:11:54.442Z,4.88
2023-04-20T15:14:23.449Z,4.57
2023-04-20T15:16:51.944Z,4.90
2023-04-20T15:19:20.240Z,5.20
2023-04-20T15:21:47.970Z,5.20
2023-04-20T15:24:15.771Z,5.63
2023-04-20T15:26:43.581Z,4.40
2023-04-20T15:29:11.247Z,4.40
2023-04-20T15:31:40.587Z,4.13
2023-04-20T15:34:08.284Z,4.40
2023-04-20T15:36:36.028Z,4.70
2023-04-20T15:39:04.654Z,5.40
2023-04-20T15:41:32.362Z,5.25
2023-04-20T15:44:00.276Z,4.68
2023-04-20T15:46:28.254Z,5.38
2023-04-20T15:48:57.303Z,5.22
2023-04-20T15:51:25.028Z,4.40
2023-04-20T15:53:52.790Z,7.97
2023-04-20T15:56:21.995Z,5.20
2023-04-20T15:58:50.148Z,5.22
2023-04-20T16:01:18.054Z,5.03
2023-04-20T16:03:46.557Z,4.70
2023-04-20T16:06:15.711Z,4.95
2023-04-20T16:08:43.449Z,4.65
2023-04-20T16:11:11.098Z,4.40
2023-04-20T16:13:38.830Z,4.70
2023-04-20T16:16:07.016Z,4.47
2023-04-20T16:18:34.939Z,4.47
2023-04-20T16:21:02.671Z,4.45
2023-04-20T16:23:31.896Z,4.10
2023-04-20T16:25:59.669Z,4.60
2023-04-20T16:28:27.404Z,4.80
2023-04-20T16:30:55.104Z,4.65
2023-04-20T16:33:23.231Z,4.78
2023-04-20T16:35:51.074Z,5.60
2023-04-20T16:38:20.060Z,5.85
2023-04-20T16:40:49.192Z,5.50
2023-04-20T16:43:16.843Z,4.82
2023-04-20T16:45:44.517Z,5.88
2023-04-20T16:48:12.261Z,5.03
2023-04-20T16:50:41.571Z,4.85
2023-04-20T16:53:09.957Z,4.80
2023-04-20T16:55:37.663Z,4.45
2023-04-20T16:58:06.857Z,5.05
2023-04-20T17:00:35.331Z,5.68
2023-04-20T17:03:06.572Z,4.88
2023-04-20T17:05:34.453Z,5.35
2023-04-20T17:08:02.126Z,5.10
2023-04-20T17:10:29.787Z,5.10
2023-04-20T17:12:57.479Z,5.07
2023-04-20T17:15:26.874Z,4.47
2023-04-20T17:17:54.574Z,5.20
2023-04-20T17:20:22.563Z,5.05
2023-04-20T17:22:50.276Z,4.95
2023-04-20T17:25:17.991Z,4.70
2023-04-20T17:27:45.665Z,4.10
2023-04-20T17:30:14.366Z,4.57
2023-04-20T17:32:43.567Z,4.35
2023-04-20T17:35:11.302Z,4.05
2023-04-20T17:37:39.032Z,3.65
2023-04-20T17:40:08.216Z,4.25
2023-04-20T17:42:36.044Z,4.30
2023-04-20T17:45:03.797Z,3.97
2023-04-20T17:47:32.563Z,4.97
2023-04-20T17:50:01.704Z,4.50
2023-04-20T17:52:29.392Z,4.10
2023-04-20T17:54:59.865Z,4.38
2023-04-20T17:57:27.652Z,3.75
2023-04-20T17:59:55.493Z,3.75
2023-04-20T18:02:24.100Z,4.70
2023-04-20T18:04:52.096Z,4.00
2023-04-20T18:07:21.479Z,4.43
2023-04-20T18:09:49.186Z,3.88
2023-04-20T18:12:16.934Z,3.80
2023-04-20T18:14:44.604Z,3.72
2023-04-20T18:17:12.266Z,3.95
2023-04-20T18:19:40.805Z,3.92
2023-04-20T18:22:08.898Z,4.13
2023-04-20T18:24:37.978Z,3.70
2023-04-20T18:27:05.723Z,3.50
2023-04-20T18:29:33.382Z,3.72
2023-04-20T18:32:01.406Z,3.85
2023-04-20T18:34:30.907Z,4.07
2023-04-20T18:36:58.877Z,3.88
2023-04-20T18:39:26.616Z,3.53
2023-04-20T18:41:55.737Z,3.38
2023-04-20T18:44:23.488Z,3.60
2023-04-20T18:46:51.362Z,3.65
2023-04-20T18:49:19.084Z,3.53
2023-04-20T18:51:46.766Z,3.58
2023-04-20T18:54:14.429Z,3.50
2023-04-20T18:56:42.142Z,3.30
2023-04-20T18:59:11.496Z,3.58
2023-04-20T19:01:40.529Z,3.10
2023-04-20T19:04:08.683Z,3.47
2023-04-20T19:06:36.633Z,3.65
2023-04-20T19:09:05.971Z,3.47
2023-04-20T19:11:35.645Z,3.45
2023-04-20T19:14:03.308Z,3.25
2023-04-20T19:16:32.607Z,3.20
2023-04-20T19:19:00.496Z,3.17
2023-04-20T19:21:28.357Z,3.10
2023-04-20T19:23:56.521Z,2.97
2023-04-20T19:26:24.884Z,3.10
2023-04-20T19:28:53.325Z,3.03
2023-04-20T19:31:21.096Z,3.45
2023-04-20T19:33:50.279Z,3.22
2023-04-20T19:36:19.103Z,3.40
2023-04-20T19:38:46.825Z,3.20
2023-04-20T19:41:14.505Z,3.58
2023-04-20T19:43:42.157Z,2.90
2023-04-20T19:46:10.042Z,3.25
2023-04-20T19:48:37.760Z,2.65
2023-04-20T19:51:06.762Z,3.05
2023-04-20T19:53:34.494Z,2.90
2023-04-20T19:56:04.250Z,2.90
2023-04-20T19:58:33.975Z,3.38
2023-04-20T20:01:02.104Z,2.92
2023-04-20T20:03:29.979Z,3.05
2023-04-20T20:05:57.802Z,3.17
2023-04-20T20:08:26.833Z,2.80
2023-04-20T20:10:54.512Z,3.22
2023-04-20T20:13:22.195Z,3.08
2023-04-20T20:15:49.916Z,3.47
2023-04-20T20:18:18.468Z,2.92
2023-04-20T20:20:46.172Z,2.92
2023-04-20T20:23:13.867Z,2.95
2023-04-20T20:25:42.864Z,2.60
2023-04-20T20:28:10.557Z,3.20
2023-04-20T20:30:38.254Z,3.00
2023-04-20T20:33:06.022Z,3.22
2023-04-20T20:35:33.766Z,3.10
2023-04-20T20:38:01.419Z,2.78
2023-04-20T20:40:29.108Z,2.88
2023-04-20T20:42:58.463Z,2.90
2023-04-20T20:45:26.332Z,2.70
2023-04-20T20:47:54.175Z,2.85
2023-04-20T20:50:22.681Z,2.60
2023-04-20T20:52:50.398Z,2.90
2023-04-20T20:55:18.052Z,3.05
2023-04-20T20:57:46.472Z,3.22
2023-04-20T21:00:16.531Z,2.88
2023-04-20T21:02:44.373Z,2.97
2023-04-20T21:05:12.260Z,2.83
2023-04-20T21:07:40.188Z,2.50
2023-04-20T21:10:08.630Z,3.05
2023-04-20T21:12:36.425Z,3.08
2023-04-20T21:15:04.165Z,2.90
2023-04-20T21:17:33.218Z,2.67
2023-04-20T21:20:00.889Z,2.40
2023-04-20T21:22:28.547Z,2.65
2023-04-20T21:24:56.248Z,2.35
2023-04-20T21:27:23.961Z,2.60
2023-04-20T21:29:51.639Z,2.40
2023-04-20T21:32:19.367Z,2.83
2023-04-20T21:34:48.436Z,2.75
2023-04-20T21:37:16.101Z,2.20
2023-04-20T21:39:43.836Z,2.55
2023-04-20T21:42:11.683Z,2.60
2023-04-20T21:44:39.366Z,2.50
2023-04-20T21:47:07.042Z,2.58
2023-04-20T21:49:34.705Z,2.60
2023-04-20T21:52:03.785Z,2.72
2023-04-20T21:54:33.268Z,2.78
2023-04-20T21:57:02.434Z,2.50
2023-04-20T21:59:30.164Z,2.50
2023-04-20T22:01:57.840Z,2.30
2023-04-20T22:04:26.804Z,2.78
2023-04-20T22:06:55.427Z,2.40
2023-04-20T22:09:24.840Z,2.60
2023-04-20T22:11:53.578Z,2.55
2023-04-20T22:14:21.449Z,2.70
2023-04-20T22:16:49.132Z,2.60
2023-04-20T22:19:17.500Z,2.50
2023-04-20T22:21:45.290Z,2.65
2023-04-20T22:24:12.987Z,2.80
2023-04-20T22:26:42.131Z,2.40
2023-04-20T22:29:09.914Z,2.80
2023-04-20T22:31:37.953Z,2.65
2023-04-20T22:34:05.709Z,2.22
2023-04-20T22:36:34.990Z,2.70
2023-04-20T22:39:02.712Z,2.50
2023-04-20T22:41:30.424Z,2.42
2023-04-20T22:43:59.415Z,2.50
2023-04-20T22:46:27.245Z,2.20
2023-04-20T22:48:56.573Z,2.53
2023-04-20T22:51:24.245Z,2.58
2023-04-20T22:53:51.925Z,2.50
2023-04-20T22:56:19.581Z,2.50
2023-04-20T22:58:47.245Z,2.50
2023-04-20T23:01:16.304Z,2.40
2023-04-20T23:03:44.246Z,1.98
2023-04-20T23:06:12.152Z,2.28
2023-04-20T23:08:39.847Z,2.72
2023-04-20T23:11:07.542Z,2.60
2023-04-20T23:13:37.051Z,2.28
2023-04-20T23:16:05.017Z,2.10
2023-04-20T23:18:34.411Z,2.30
2023-04-20T23:21:02.084Z,2.58
2023-04-20T23:23:29.755Z,2.10
2023-04-20T23:25:57.454Z,2.42
2023-04-20T23:28:25.129Z,2.50
2023-04-20T23:30:52.780Z,2.30
2023-04-20T23:33:20.598Z,2.08
2023-04-20T23:35:49.634Z,2.33
2023-04-20T23:38:18.050Z,2.22
2023-04-20T23:40:45.913Z,2.17
2023-04-20T23:43:13.584Z,2.17
2023-04-20T23:45:41.318Z,2.22
2023-04-20T23:48:09.078Z,2.13
2023-04-20T23:50:37.686Z,2.30
2023-04-20T23:53:07.429Z,2.20
2023-04-20T23:55:35.136Z,2.10
2023-04-20T23:58:02.790Z,2.33
